Weather at Augsburg Airport

Public forecast

Using degrees Celsius for public forecast. Weather courtesy of forecast.io.

Current aviation weather report (METAR) for Augsburg Airport

Report is more than 6 hours old.

2022/11/14 15:20 (retrieved 2 years ago)

EDMA 141520Z 13004KT CAVOK 09/07 Q1017

Closest aviation forecast (TAF) to Augsburg Airport

Forecast is more than 12 hours old.

Closest forecast is Munich Airport, 34.3 nm (63.6 km) E.

2023/02/22 18:37 (retrieved 1 year ago)

TAF EDDM 221700Z 2218/2324 VRB03KT CAVOK BECMG 2222/2224 24005KT PROB30 TEMPO 2312/2318 SHRA BKN014TCU PROB30 TEMPO 2322/2324 1200 BCFG